Time;durP1;ratioP1;P1;durP2;ratioP2;P2;SDS_P1;SDS_P2;PMS_P1;PMS_P2;Temp;Humidity;BMP_temperature;BMP_pressure;BME280_temperature;BME280_humidity;BME280_pressure;Samples;Min_cycle;Max_cycle;Signal;HPM_P1;HPM_P2
2022/07/25 15:17:01;;;;;;;6.68;3.45;;;;;;;24.85;57.63;100369.53;2129641;27;20123;-68
2022/07/25 15:18:03;;;;;;;5.82;3.35;;;;;;;24.85;57.42;100380.53;2112105;28;20047;-69
2022/07/25 15:19:09;;;;;;;7.95;2.88;;;;;;;24.82;57.43;100376.59;2099025;28;20500;-68
2022/07/25 15:20:12;;;;;;;5.57;3.20;;;;;;;24.80;57.34;100378.13;2102899;28;20044;-68
2022/07/25 15:21:16;;;;;;;5.25;3.00;;;;;;;24.81;57.41;100368.69;2095166;28;20423;-67
2022/07/25 15:22:24;;;;;;;3.85;3.30;;;;;;;24.81;57.35;100368.69;2116928;28;20141;-68
2022/07/25 15:23:29;;;;;;;6.72;3.55;;;;;;;24.82;57.72;100375.81;2103010;28;20060;-68
2022/07/25 15:24:32;;;;;;;11.00;3.22;;;;;;;24.83;57.88;100367.16;2109990;28;20059;-67
2022/07/25 15:25:36;;;;;;;5.68;3.28;;;;;;;24.86;58.05;100377.41;2101837;28;20062;-68
2022/07/25 15:26:41;;;;;;;4.50;3.10;;;;;;;24.87;58.26;100362.47;2102356;28;20433;-69
2022/07/25 15:27:50;;;;;;;8.27;2.90;;;;;;;24.90;58.44;100369.16;2094939;28;20044;-67
2022/07/25 15:28:57;;;;;;;7.00;3.03;;;;;;;24.90;57.90;100372.72;2096377;28;20401;-70
2022/07/25 15:30:01;;;;;;;4.90;2.97;;;;;;;24.91;58.21;100374.31;2115654;28;20034;-71
2022/07/25 15:31:09;;;;;;;5.07;2.78;;;;;;;24.90;58.17;100364.47;2112815;28;20081;-68
2022/07/25 15:32:13;;;;;;;8.20;3.00;;;;;;;24.93;57.90;100365.66;2101953;28;20118;-73
2022/07/25 15:33:17;;;;;;;7.97;2.65;;;;;;;24.91;57.63;100363.31;2111162;28;20052;-69
2022/07/25 15:34:22;;;;;;;7.20;3.13;;;;;;;24.92;58.14;100366.84;2115071;27;20036;-69
2022/07/25 15:35:23;;;;;;;4.45;3.30;;;;;;;24.92;58.19;100369.59;2099761;28;20066;-69
2022/07/25 15:36:25;;;;;;;5.20;2.78;;;;;;;24.91;58.00;100370.78;2100489;28;20082;-69
2022/07/25 15:37:27;;;;;;;4.95;2.60;;;;;;;24.89;57.96;100362.09;2100491;28;20054;-70
2022/07/25 15:38:30;;;;;;;5.32;3.10;;;;;;;24.88;58.18;100361.31;2094969;28;20037;-70
2022/07/25 15:39:34;;;;;;;4.40;2.72;;;;;;;24.87;58.32;100361.69;2094400;28;20035;-71
2022/07/25 15:40:38;;;;;;;4.47;2.75;;;;;;;24.86;58.54;100360.09;2107693;28;20051;-70
2022/07/25 15:41:41;;;;;;;6.43;3.15;;;;;;;24.86;58.62;100382.09;2111131;28;20038;-69
2022/07/25 15:42:43;;;;;;;5.93;3.08;;;;;;;24.83;58.60;100355.38;2111016;28;20056;-68
2022/07/25 15:43:47;;;;;;;4.38;3.15;;;;;;;24.81;58.46;100355.75;2115406;28;20051;-69
2022/07/25 15:44:57;;;;;;;3.50;2.83;;;;;;;24.82;58.84;100359.31;2115827;27;20402;-69
2022/07/25 15:46:11;;;;;;;7.18;2.90;;;;;;;24.80;58.54;100348.66;2111666;28;20046;-68
2022/07/25 15:47:13;;;;;;;3.65;2.70;;;;;;;24.80;58.47;100353.38;2101726;28;20032;-69
2022/07/25 15:48:19;;;;;;;3.60;2.88;;;;;;;24.79;58.54;100343.56;2092073;28;20048;-68
2022/07/25 15:49:26;;;;;;;3.50;2.97;;;;;;;24.78;58.71;100348.28;2093264;28;20037;-68
2022/07/25 15:50:31;;;;;;;6.40;2.60;;;;;;;24.77;58.64;100351.38;2091716;28;20063;-69
2022/07/25 15:51:37;;;;;;;6.47;2.72;;;;;;;24.77;58.56;100345.88;2109010;28;20125;-69
2022/07/25 15:52:39;;;;;;;5.60;3.28;;;;;;;24.76;58.58;100341.56;2103375;28;20047;-69
2022/07/25 15:53:41;;;;;;;3.60;2.90;;;;;;;24.75;58.60;100340.78;2091380;28;20041;-68
2022/07/25 15:54:46;;;;;;;6.18;2.85;;;;;;;24.74;58.45;100339.97;2087192;28;20673;-69
2022/07/25 15:55:49;;;;;;;5.28;2.70;;;;;;;24.73;58.57;100338.41;2089982;28;20068;-69
2022/07/25 15:56:54;;;;;;;6.50;2.65;;;;;;;24.74;58.60;100342.72;2110213;27;20059;-68
2022/07/25 15:58:01;;;;;;;3.72;2.90;;;;;;;24.71;58.60;100335.22;2112484;28;20921;-69
2022/07/25 15:59:09;;;;;;;6.88;3.13;;;;;;;24.72;58.58;100336.84;2102710;28;20064;-69
2022/07/25 16:00:13;;;;;;;6.32;2.63;;;;;;;24.72;58.88;100334.09;2100123;28;20423;-70
2022/07/25 16:01:17;;;;;;;3.22;2.60;;;;;;;24.72;58.82;100328.59;2100673;27;20043;-68
2022/07/25 16:02:24;;;;;;;6.95;3.05;;;;;;;24.71;58.49;100337.97;2105274;28;20463;-71
2022/07/25 16:03:29;;;;;;;5.55;3.05;;;;;;;24.70;58.58;100330.91;2092047;28;20045;-68
2022/07/25 16:04:31;;;;;;;5.13;3.00;;;;;;;24.70;58.67;100330.91;2101880;27;20052;-68
2022/07/25 16:05:34;;;;;;;4.00;3.10;;;;;;;24.70;58.39;100313.63;2113195;27;20051;-68
2022/07/25 16:06:39;;;;;;;7.13;2.80;;;;;;;24.71;58.43;100324.22;2115034;28;20118;-69
2022/07/25 16:07:44;;;;;;;6.95;3.33;;;;;;;24.71;58.70;100321.47;2106477;28;20060;-68
2022/07/25 16:08:53;;;;;;;4.60;3.08;;;;;;;24.72;58.44;100320.34;2097451;28;20044;-70
2022/07/25 16:10:05;;;;;;;4.43;3.10;;;;;;;24.73;59.05;100307.38;2091935;28;20052;-70
2022/07/25 16:11:07;;;;;;;7.47;3.10;;;;;;;24.71;59.15;100310.50;2089784;28;20060;-70
2022/07/25 16:12:11;;;;;;;5.32;2.65;;;;;;;24.72;58.44;100317.59;2095549;28;20053;-70
2022/07/25 16:13:18;;;;;;;7.53;3.28;;;;;;;24.72;58.79;100312.09;2105615;28;20044;-71
2022/07/25 16:14:20;;;;;;;4.97;2.83;;;;;;;24.72;58.90;100314.84;2098634;28;20044;-70
2022/07/25 16:15:25;;;;;;;5.47;2.75;;;;;;;24.72;58.83;100303.84;2104345;28;20060;-70
2022/07/25 16:16:37;;;;;;;4.25;2.63;;;;;;;24.73;58.84;100315.63;2112048;28;20039;-70
2022/07/25 16:17:40;;;;;;;4.25;3.30;;;;;;;24.71;59.30;100310.50;2112024;27;20070;-69
2022/07/25 16:18:43;;;;;;;5.35;3.25;;;;;;;24.73;59.16;100310.13;2110933;28;20062;-69
2022/07/25 16:19:45;;;;;;;5.75;3.17;;;;;;;24.72;58.96;100301.09;2113237;27;20039;-70
2022/07/25 16:20:50;;;;;;;4.25;2.85;;;;;;;24.72;59.37;100297.56;2110427;28;20105;-69
2022/07/25 16:21:58;;;;;;;5.90;2.90;;;;;;;24.71;59.10;100301.44;2097751;28;20035;-69
2022/07/25 16:23:04;;;;;;;4.30;3.08;;;;;;;24.71;59.55;100301.44;2099144;28;20051;-70
2022/07/25 16:24:08;;;;;;;5.00;3.08;;;;;;;24.71;59.72;100294.00;2104914;28;20043;-69
2022/07/25 16:25:13;;;;;;;4.30;3.08;;;;;;;24.72;60.14;100292.84;2103120;28;20044;-70
2022/07/25 16:26:18;;;;;;;8.82;3.05;;;;;;;24.71;59.98;100291.25;2105558;28;20044;-69
2022/07/25 16:27:20;;;;;;;4.30;2.72;;;;;;;24.71;60.07;100294.00;2096438;28;20488;-69
2022/07/25 16:28:24;;;;;;;3.00;2.70;;;;;;;24.71;59.99;100288.50;2098899;28;20052;-69
2022/07/25 16:29:28;;;;;;;6.63;2.60;;;;;;;24.69;60.05;100288.09;2107711;27;20055;-69
2022/07/25 16:30:37;;;;;;;7.47;2.58;;;;;;;24.69;59.90;100287.31;2102077;28;20028;-69
2022/07/25 16:31:39;;;;;;;6.70;2.70;;;;;;;24.67;59.94;100287.69;2098976;28;20060;-69
2022/07/25 16:32:45;;;;;;;4.63;2.92;;;;;;;24.64;59.31;100285.69;2102793;28;20062;-69
2022/07/25 16:33:52;;;;;;;5.50;2.83;;;;;;;24.62;59.88;100290.81;2102619;28;20051;-68
2022/07/25 16:34:57;;;;;;;3.97;2.60;;;;;;;24.61;59.58;100278.22;2099007;28;20040;-70
2022/07/25 16:36:03;;;;;;;3.35;2.58;;;;;;;24.60;59.90;100290.38;2095204;28;20411;-70
2022/07/25 16:37:08;;;;;;;4.22;2.70;;;;;;;24.61;60.36;100280.97;2093677;27;20028;-69
2022/07/25 16:38:14;;;;;;;6.75;2.97;;;;;;;24.59;60.46;100280.56;2105150;28;20055;-69
2022/07/25 16:39:15;;;;;;;3.20;2.60;;;;;;;24.59;60.55;100275.06;2104253;28;20049;-69
2022/07/25 16:40:18;;;;;;;4.85;2.60;;;;;;;24.58;60.14;100269.94;2089885;28;20497;-70
2022/07/25 16:41:23;;;;;;;5.28;2.45;;;;;;;24.58;60.26;100278.97;2090994;28;20047;-70
2022/07/25 16:42:32;;;;;;;4.28;2.55;;;;;;;24.57;60.56;100276.63;2078255;28;20053;-68
2022/07/25 16:43:34;;;;;;;5.57;2.60;;;;;;;24.58;60.58;100272.69;2085126;27;20053;-70
2022/07/25 16:44:39;;;;;;;5.18;2.67;;;;;;;24.58;60.90;100267.19;2118238;27;20062;-66
2022/07/25 16:45:44;;;;;;;7.38;2.50;;;;;;;24.58;60.81;100264.44;2099921;28;20082;-69
2022/07/25 16:46:47;;;;;;;7.25;3.25;;;;;;;24.56;60.72;100273.09;2089511;28;20041;-71
2022/07/25 16:47:52;;;;;;;4.13;2.70;;;;;;;24.56;60.96;100278.56;2101600;28;20048;-71
2022/07/25 16:48:59;;;;;;;5.68;2.80;;;;;;;24.56;61.04;100264.84;2100063;28;20341;-70
2022/07/25 16:50:05;;;;;;;3.10;2.60;;;;;;;24.57;61.22;100276.63;2079302;28;20045;-70
2022/07/25 16:51:09;;;;;;;2.80;2.55;;;;;;;24.55;61.17;100274.22;2088437;28;20041;-70
2022/07/25 16:52:16;;;;;;;4.72;2.67;;;;;;;24.56;61.00;100277.75;2093604;28;20036;-70
2022/07/25 16:53:26;;;;;;;4.40;2.80;;;;;;;24.55;61.09;100267.94;2089791;28;20053;-70
2022/07/25 16:54:32;;;;;;;5.30;2.40;;;;;;;24.53;61.15;100268.34;2097100;28;20052;-70
2022/07/25 16:55:39;;;;;;;5.57;2.42;;;;;;;24.53;61.24;100271.09;2098267;28;20044;-70
2022/07/25 16:56:42;;;;;;;7.05;2.72;;;;;;;24.52;61.11;100275.00;2105328;28;20043;-70
2022/07/25 16:57:44;;;;;;;4.10;2.70;;;;;;;24.52;61.11;100272.25;2108017;28;20031;-70
2022/07/25 16:58:54;;;;;;;4.97;2.50;;;;;;;24.52;61.44;100258.50;2096291;28;20520;-69
2022/07/25 16:59:57;;;;;;;3.63;2.47;;;;;;;24.53;61.49;100262.84;2100812;28;20571;-67
2022/07/25 17:01:01;;;;;;;5.88;3.05;;;;;;;24.53;61.51;100260.09;2091735;28;20059;-68
2022/07/25 17:02:05;;;;;;;4.68;2.55;;;;;;;24.52;61.90;100259.28;2079104;28;20045;-67
2022/07/25 17:03:11;;;;;;;5.30;2.90;;;;;;;24.53;61.90;100257.34;2097448;28;20889;-67
2022/07/25 17:04:16;;;;;;;4.65;3.08;;;;;;;24.53;62.06;100254.59;2106574;28;20052;-67
2022/07/25 17:05:19;;;;;;;5.85;2.72;;;;;;;24.51;62.12;100254.97;2108241;27;20039;-69
2022/07/25 17:06:24;;;;;;;5.45;2.67;;;;;;;24.52;61.97;100247.50;2090135;28;20439;-74
2022/07/25 17:07:27;;;;;;;4.97;2.50;;;;;;;24.52;62.04;100247.50;2101646;27;20047;-68
2022/07/25 17:08:33;;;;;;;4.18;2.88;;;;;;;24.53;62.27;100260.09;2105441;28;20059;-76
2022/07/25 17:09:39;;;;;;;3.63;2.88;;;;;;;24.53;62.15;100249.09;2103597;28;20040;-69
2022/07/25 17:10:42;;;;;;;8.32;2.78;;;;;;;24.53;62.29;100243.59;2084801;28;20059;-67
2022/07/25 17:11:44;;;;;;;8.07;2.85;;;;;;;24.52;62.04;100242.00;2091801;28;21106;-70
2022/07/25 17:12:47;;;;;;;3.65;2.42;;;;;;;24.52;62.04;100242.78;2106887;28;20052;-70
2022/07/25 17:13:50;;;;;;;4.57;2.90;;;;;;;24.54;61.88;100238.91;2109931;27;20035;-70
2022/07/25 17:14:54;;;;;;;6.60;2.60;;;;;;;24.53;61.90;100243.59;2107507;28;20044;-69
2022/07/25 17:15:57;;;;;;;4.45;2.50;;;;;;;24.52;61.76;100239.25;2108052;28;20048;-72
2022/07/25 17:17:03;;;;;;;3.92;2.50;;;;;;;24.54;61.82;100234.19;2106453;28;20044;-71
2022/07/25 17:18:08;;;;;;;4.65;2.92;;;;;;;24.54;61.58;100230.66;2108307;27;20048;-72
2022/07/25 17:19:15;;;;;;;3.10;2.40;;;;;;;24.55;61.90;100219.25;2105669;28;20676;-71
2022/07/25 17:20:18;;;;;;;3.72;2.40;;;;;;;24.54;61.64;100228.69;2097174;28;20859;-68
2022/07/25 17:21:23;;;;;;;5.32;2.60;;;;;;;24.55;61.06;100234.97;2083096;28;20065;-68
2022/07/25 17:22:25;;;;;;;4.05;2.67;;;;;;;24.54;61.38;100222.41;2098244;28;20388;-72
2022/07/25 17:23:31;;;;;;;5.65;2.38;;;;;;;24.55;61.39;100230.25;2102261;28;20065;-67
2022/07/25 17:24:35;;;;;;;5.68;2.50;;;;;;;24.55;61.12;100222.00;2090122;28;20036;-67
2022/07/25 17:25:38;;;;;;;6.93;2.78;;;;;;;24.55;61.14;100224.75;2100167;28;20048;-70
2022/07/25 17:26:42;;;;;;;7.25;3.05;;;;;;;24.54;61.16;100217.69;2108254;28;20098;-72
2022/07/25 17:27:48;;;;;;;5.32;2.90;;;;;;;24.55;61.06;100219.25;2109378;27;20505;-73
2022/07/25 17:28:54;;;;;;;7.03;2.80;;;;;;;24.56;61.29;100220.84;2114598;27;20032;-70
2022/07/25 17:30:00;;;;;;;4.22;2.80;;;;;;;24.56;61.12;100215.38;2108746;28;20035;-70
2022/07/25 17:31:05;;;;;;;4.35;2.85;;;;;;;24.55;60.98;100211.03;2101388;28;20391;-70
2022/07/25 17:32:09;;;;;;;5.93;2.97;;;;;;;24.56;60.82;100203.56;2102442;28;20055;-69
2022/07/25 17:33:11;;;;;;;6.80;2.80;;;;;;;24.55;60.57;100211.03;2106199;28;20110;-67
2022/07/25 17:34:16;;;;;;;5.35;3.00;;;;;;;24.54;60.78;100206.69;2100335;28;20569;-71
2022/07/25 17:35:24;;;;;;;6.38;2.70;;;;;;;24.55;60.59;100212.97;2090830;28;20044;-68
2022/07/25 17:36:28;;;;;;;5.30;4.00;;;;;;;24.55;60.04;100204.75;2088869;28;20051;-72
2022/07/25 17:37:36;;;;;;;4.65;2.50;;;;;;;24.55;60.06;100202.78;2106339;27;20050;-71
2022/07/25 17:38:41;;;;;;;8.30;2.45;;;;;;;24.55;59.88;100208.28;2106269;28;20039;-71
2022/07/25 17:39:47;;;;;;;6.03;2.75;;;;;;;24.55;59.74;100191.78;2099570;28;20043;-71
2022/07/25 17:40:50;;;;;;;5.35;2.85;;;;;;;24.56;59.94;100198.88;2099561;28;20079;-70
2022/07/25 17:41:54;;;;;;;5.70;2.70;;;;;;;24.57;59.33;100194.16;2100192;28;20293;-70
2022/07/25 17:42:58;;;;;;;7.80;2.85;;;;;;;24.57;59.45;100194.94;2088531;28;20036;-71
2022/07/25 17:44:04;;;;;;;5.07;2.88;;;;;;;24.58;58.81;100202.00;2099870;28;20419;-68
2022/07/25 17:45:12;;;;;;;9.10;2.70;;;;;;;24.59;58.57;100195.34;2098553;28;20032;-71
2022/07/25 17:50:36;;;;;;;3.53;2.50;;;;;;;24.61;57.82;100190.25;1996553;29;20056;-70
2022/07/25 17:51:38;;;;;;;7.47;3.35;;;;;;;24.63;57.67;100189.88;2028938;29;20044;-72
2022/07/25 17:52:43;;;;;;;4.53;2.60;;;;;;;24.64;57.57;100188.69;2016992;29;20053;-72
2022/07/25 17:53:47;;;;;;;4.43;2.55;;;;;;;24.63;57.64;100190.66;2019985;29;20048;-71
2022/07/25 17:54:49;;;;;;;4.25;2.60;;;;;;;24.64;57.26;100191.44;2022885;29;20415;-67
2022/07/25 17:55:56;;;;;;;3.33;2.50;;;;;;;24.66;56.98;100181.66;2022611;29;20052;-66
2022/07/25 17:56:58;;;;;;;5.30;2.47;;;;;;;24.67;56.75;100183.22;2030935;29;20992;-67
2022/07/25 17:58:01;;;;;;;10.00;2.70;;;;;;;24.68;56.80;100178.50;2028999;29;20451;-67
2022/07/25 17:59:06;;;;;;;5.25;2.65;;;;;;;24.69;56.59;100188.34;2029019;29;20104;-66
2022/07/25 18:00:13;;;;;;;4.95;2.17;;;;;;;24.69;57.01;100183.63;2038939;29;20044;-64
2022/07/25 18:01:15;;;;;;;3.00;2.20;;;;;;;24.70;56.37;100184.41;2036858;29;20070;-66
2022/07/25 18:02:18;;;;;;;5.28;2.47;;;;;;;24.69;56.31;100186.38;2043764;29;20055;-64
2022/07/25 18:03:23;;;;;;;9.55;3.13;;;;;;;24.70;56.24;100185.19;2039978;29;20127;-66
2022/07/25 18:04:26;;;;;;;3.83;2.55;;;;;;;24.71;56.39;100183.25;2025991;29;20059;-67
2022/07/25 18:05:28;;;;;;;6.57;2.58;;;;;;;24.70;56.21;100187.16;2014583;29;20044;-67
2022/07/25 18:06:32;;;;;;;3.22;2.45;;;;;;;24.71;56.21;100186.78;2021331;29;20075;-67
2022/07/25 18:07:39;;;;;;;7.35;2.55;;;;;;;24.70;55.87;100181.66;2023321;29;20198;-68
2022/07/25 18:08:41;;;;;;;3.97;2.70;;;;;;;24.72;55.86;100184.84;2025455;29;20052;-68
2022/07/25 18:09:47;;;;;;;5.47;2.45;;;;;;;24.71;55.35;100180.50;2031621;29;20051;-68
2022/07/25 18:10:49;;;;;;;4.13;2.38;;;;;;;24.69;55.52;100180.88;2026325;29;20039;-69
2022/07/25 18:11:53;;;;;;;4.68;2.35;;;;;;;24.69;55.52;100183.63;2026593;29;20503;-68
2022/07/25 18:13:00;;;;;;;3.95;2.45;;;;;;;24.69;54.97;100182.84;2032589;29;20056;-68
2022/07/25 18:14:02;;;;;;;6.43;2.47;;;;;;;24.69;55.33;100178.13;2013008;29;20043;-66
2022/07/25 18:15:05;;;;;;;4.38;2.40;;;;;;;24.68;54.59;100173.78;1109521;29;10001272;-68
2022/07/25 18:16:14;;;;;;;6.35;2.83;;;;;;;24.67;55.32;100177.72;1986746;29;20054;-67
2022/07/25 18:17:16;;;;;;;3.50;2.40;;;;;;;24.68;55.15;100181.25;1992794;29;20041;-68
2022/07/25 18:18:19;;;;;;;4.50;2.40;;;;;;;24.67;54.84;100182.44;2009539;29;20047;-67
2022/07/25 18:19:23;;;;;;;5.55;2.80;;;;;;;24.66;54.42;100181.66;1997137;29;20037;-68
2022/07/25 18:20:30;;;;;;;5.90;3.25;;;;;;;24.66;54.83;100176.16;2008696;29;20056;-68
2022/07/25 18:21:31;;;;;;;7.38;2.75;;;;;;;24.66;54.77;100176.16;2015121;29;20188;-67
2022/07/25 18:22:36;;;;;;;7.95;2.72;;;;;;;24.65;54.67;100171.84;2015740;29;20056;-68
2022/07/25 18:23:38;;;;;;;5.20;2.30;;;;;;;24.64;54.68;100175.75;2008594;29;20053;-68
2022/07/25 18:24:40;;;;;;;5.55;2.70;;;;;;;24.63;54.63;100174.19;2007870;29;20408;-68
2022/07/25 18:25:45;;;;;;;6.88;2.40;;;;;;;24.64;54.53;100170.25;2008325;29;20862;-68
2022/07/25 18:26:52;;;;;;;5.78;2.67;;;;;;;24.64;54.99;100172.22;2007402;29;20057;-68
2022/07/25 18:27:54;;;;;;;5.03;2.72;;;;;;;24.65;54.70;100171.03;2014025;29;20056;-68
2022/07/25 18:28:57;;;;;;;4.72;2.80;;;;;;;24.64;54.38;100170.25;2006071;29;20044;-68
2022/07/25 18:30:04;;;;;;;4.30;2.63;;;;;;;24.64;54.08;100163.97;2007382;29;20056;-68
2022/07/25 18:31:08;;;;;;;4.25;2.67;;;;;;;24.63;54.15;100171.44;2014398;29;20551;-68
2022/07/25 18:32:13;;;;;;;6.35;2.50;;;;;;;24.64;54.69;100172.22;2019182;29;20067;-68
2022/07/25 18:33:15;;;;;;;4.47;2.40;;;;;;;24.63;54.80;100171.44;2014350;29;20063;-69
2022/07/25 18:34:20;;;;;;;15.90;3.58;;;;;;;24.64;54.31;100167.50;2014479;29;20102;-68
2022/07/25 18:35:24;;;;;;;5.55;2.40;;;;;;;24.64;54.47;100174.97;2022130;29;20048;-68
2022/07/25 18:36:29;;;;;;;5.05;2.20;;;;;;;24.63;54.35;100171.44;2021449;29;20064;-67
2022/07/25 18:37:31;;;;;;;5.25;2.40;;;;;;;24.63;54.45;100170.66;2022022;29;20048;-68
2022/07/25 18:38:36;;;;;;;5.40;2.70;;;;;;;24.62;54.73;100174.53;2013907;29;20057;-68
2022/07/25 18:39:38;;;;;;;8.05;2.80;;;;;;;24.61;54.89;100176.50;2014918;29;20718;-68
2022/07/25 18:40:46;;;;;;;4.22;2.40;;;;;;;24.60;54.91;100177.69;2022016;29;20044;-68
2022/07/25 18:41:49;;;;;;;5.43;2.42;;;;;;;24.61;54.25;100179.25;2022646;29;20060;-68
2022/07/25 18:42:51;;;;;;;6.20;2.60;;;;;;;24.59;54.27;100176.13;2014833;29;20063;-68
2022/07/25 18:43:56;;;;;;;3.70;2.55;;;;;;;24.58;54.92;100169.03;2015959;29;20108;-68
2022/07/25 18:45:03;;;;;;;8.85;2.38;;;;;;;24.57;54.61;100172.97;2016169;29;20051;-70
